Home > Products > Valid Products > TAF

000
FTUS43 KGLD 310500
TAFGLD
TAF
KGLD 310520Z 3106/0106 30005KT P6SM FEW060 SCT120
     FM312000 27005KT P6SM SCT100=



000
FTUS43 KGLD 310500
TAFMCK
TAF
KMCK 310520Z 3106/0106 VRB03KT P6SM SCT100 SCT200
     FM311500 27005KT P6SM FEW070 SCT250
     FM010200 35005KT P6SM SCT100 SCT250=



000
FTUS43 KGLD 310500
TAFMCK
TAF
KMCK 310520Z 3106/0106 VRB03KT P6SM SCT100 SCT200
     FM311500 27005KT P6SM FEW070 SCT250
     FM010200 35005KT P6SM SCT100 SCT250=



000
FTUS43 KGLD 302300
TAFMCK
TAF
KMCK 302327Z 3100/3124 VRB03KT P6SM FEW070 BKN100
     FM310600 VRB03KT P6SM SCT100 SCT200
     FM311500 27005KT P6SM FEW070 SCT250=



000
FTUS43 KGLD 302300
TAFMCK
TAF
KMCK 302327Z 3100/3124 VRB03KT P6SM FEW070 BKN100
     FM310600 VRB03KT P6SM SCT100 SCT200
     FM311500 27005KT P6SM FEW070 SCT250=



000
FTUS43 KGLD 302300
TAFGLD
TAF
KGLD 302327Z 3100/3124 VRB03KT P6SM FEW040 BKN100
     FM310700 29005KT P6SM SCT120 SCT200
     FM311800 26005KT P6SM SCT080=



000
FTUS43 KGLD 301700
TAFMCK
TAF
KMCK 301720Z 3018/3118 06008KT P6SM FEW020 BKN100
     FM310000 VRB03KT P6SM SCT080 BKN250
     FM310900 27007KT P6SM SCT100 SCT250=



000
FTUS43 KGLD 301700
TAFGLD
TAF
KGLD 301720Z 3018/3118 08011KT P6SM FEW020 OVC100
     FM310000 VRB03KT P6SM SCT050 BKN120
     FM310700 30007KT P6SM SCT120 BKN200=



000
FTUS43 KGLD 301700
TAFMCK
TAF
KMCK 301720Z 3018/3118 06008KT P6SM FEW020 BKN100
     FM310000 VRB03KT P6SM SCT080 BKN250
     FM310900 27007KT P6SM SCT100 SCT250=



000
FTUS43 KGLD 301100 RRA
TAFMCK
TAF
KMCK 301153Z 3012/3112 02006KT 5SM BR VCSH BKN007
      TEMPO 3013/3015 P6SM NSW FEW007 BKN070
     FM301500 06007KT P6SM BKN080
     FM302300 VRB03KT P6SM SCT080 BKN250
     FM310900 27007KT P6SM SCT100 SCT250=



000
FTUS43 KGLD 301100 RRA
TAFGLD
TAF
KGLD 301153Z 3012/3112 05010KT P6SM -RA FEW007 OVC019
     FM301900 09005KT P6SM VCTS BKN050CB
     FM310000 VRB03KT P6SM SCT050 BKN120
     FM310700 30007KT P6SM SCT120 BKN200=



000
FTUS43 KGLD 301100 RRA
TAFMCK
TAF
KMCK 301153Z 3012/3112 02006KT 5SM BR VCSH BKN007
      TEMPO 3013/3015 P6SM NSW FEW007 BKN070
     FM301500 06007KT P6SM BKN080
     FM302300 VRB03KT P6SM SCT080 BKN250
     FM310900 27007KT P6SM SCT100 SCT250=



000
FTUS43 KGLD 300700 AAA
TAFMCK
TAF AMD
KMCK 300751Z 3008/3106 10012KT 3SM RA BR SCT030 OVC060
     FM301000 09008KT P6SM -SHRA OVC040
      TEMPO 3012/3016 4SM -SHRA BR OVC020
     FM301800 09008KT P6SM SCT025 BKN110
     FM302100 10010KT P6SM VCTS SCT050CB BKN120
     FM310200 VRB05KT P6SM FEW120 BKN250=



000
FTUS43 KGLD 300700 AAA
TAFMCK
TAF AMD
KMCK 300751Z 3008/3106 10012KT 3SM RA BR SCT030 OVC060
     FM301000 09008KT P6SM -SHRA OVC040
      TEMPO 3012/3016 4SM -SHRA BR OVC020
     FM301800 09008KT P6SM SCT025 BKN110
     FM302100 10010KT P6SM VCTS SCT050CB BKN120
     FM310200 VRB05KT P6SM FEW120 BKN250=



000
FTUS43 KGLD 300700 AAA
TAFGLD
TAF AMD
KGLD 300749Z 3008/3106 35010KT P6SM -SHRA SCT018 BKN030 OVC110
      TEMPO 3008/3010 6SM BR BKN015
     FM301000 09008KT 3SM -SHRA BR OVC007
     FM301900 09005KT P6SM -TSRA BKN050CB
     FM302200 VRB03KT P6SM VCTS SCT050CB BKN120
     FM310000 04005KT P6SM SCT070 BKN150=



000
FTUS43 KGLD 300500 AAA
TAFGLD
TAF AMD
KGLD 300556Z 3006/3106 10010KT P6SM VCTS BKN040CB
      TEMPO 3006/3010 4SM BR BKN009
     FM301000 09008KT 2SM -SHRA BR OVC007
     FM301900 09005KT P6SM -TSRA BKN050CB
     FM302200 VRB03KT P6SM VCTS SCT050CB BKN120
     FM310000 04005KT P6SM SCT070 BKN150=



000
FTUS43 KGLD 300500
TAFMCK
TAF
KMCK 300522Z 3006/3106 09008KT P6SM VCTS BKN050CB
     FM301000 09008KT P6SM -SHRA OVC040
      TEMPO 3012/3016 4SM -SHRA BR OVC020
     FM301800 09008KT P6SM SCT025 BKN110
     FM302100 10010KT P6SM VCTS SCT050CB BKN120
     FM310200 VRB05KT P6SM FEW120 BKN250=



000
FTUS43 KGLD 300500
TAFGLD
TAF
KGLD 300522Z 3006/3106 10010KT P6SM VCTS BKN040CB
     FM301000 09008KT 2SM -SHRA BR OVC007
     FM301900 09005KT P6SM -TSRA BKN050CB
     FM302200 VRB03KT P6SM VCTS SCT050CB BKN120
     FM310000 04005KT P6SM SCT070 BKN150=



000
FTUS43 KGLD 300500
TAFMCK
TAF
KMCK 300522Z 3006/3106 09008KT P6SM VCTS BKN050CB
     FM301000 09008KT P6SM -SHRA OVC040
      TEMPO 3012/3016 4SM -SHRA BR OVC020
     FM301800 09008KT P6SM SCT025 BKN110
     FM302100 10010KT P6SM VCTS SCT050CB BKN120
     FM310200 VRB05KT P6SM FEW120 BKN250=



000
FTUS43 KGLD 300400 AAA
TAFGLD
TAF AMD
KGLD 300440Z 3005/3024 18010G17KT P6SM -TSRA BKN020CB
     FM301000 09008KT 4SM -SHRA BR OVC007
     FM301600 08005KT P6SM BKN015
     FM301800 09005KT P6SM -TSRA BKN050CB=



000
FTUS43 KGLD 292300
TAFGLD
TAF
KGLD 292324Z 3000/3024 15012KT P6SM VCTS BKN050CB
     FM300300 12010KT P6SM -TSRA SCT025 OVC050CB
     FM301000 09008KT 4SM -SHRA BR OVC007
     FM301600 08005KT P6SM BKN015
     FM301800 09005KT P6SM -TSRA BKN050CB=



000
FTUS43 KGLD 292300
TAFMCK
TAF
KMCK 292324Z 3000/3024 09009KT P6SM SCT050 BKN150
     FM300300 09008KT P6SM VCTS BKN050CB
     FM300600 09008KT P6SM -SHRA BKN050 BKN120
     FM301800 09008KT P6SM SCT050 BKN100
     FM302100 10010KT P6SM SCT050 SCT200=



000
FTUS43 KGLD 292300
TAFMCK
TAF
KMCK 292324Z 3000/3024 09009KT P6SM SCT050 BKN150
     FM300300 09008KT P6SM VCTS BKN050CB
     FM300600 09008KT P6SM -SHRA BKN050 BKN120
     FM301800 09008KT P6SM SCT050 BKN100
     FM302100 10010KT P6SM SCT050 SCT200=



000
FTUS43 KGLD 291700 RRA
TAFGLD
TAF
KGLD 291745Z 2918/3018 16014KT P6SM SCT030 BKN050
     FM292100 16012KT P6SM VCTS BKN050CB
     FM300000 14012KT P6SM VCTS BKN050CB BKN200
     FM300300 12010KT P6SM -TSRA SCT025 OVC050CB
     FM301000 09008KT 4SM -SHRA BR BKN007 OVC020=



000
FTUS43 KGLD 291700 RRA
TAFMCK
TAF
KMCK 291745Z 2918/3018 11010KT P6SM SCT050 BKN150
     FM300300 09008KT P6SM VCTS BKN050CB
     FM300600 09008KT P6SM -SHRA BKN050 BKN120
     FM301200 09008KT P6SM SCT050 BKN100=



000
FTUS43 KGLD 291700 RRA
TAFMCK
TAF
KMCK 291745Z 2918/3018 11010KT P6SM SCT050 BKN150
     FM300300 09008KT P6SM VCTS BKN050CB
     FM300600 09008KT P6SM -SHRA BKN050 BKN120
     FM301200 09008KT P6SM SCT050 BKN100=



000
FTUS43 KGLD 291500 AAA
TAFGLD
TAF AMD
KGLD 291518Z 2915/3012 18012KT P6SM SCT030
     FM292100 16012KT P6SM SCT050 BKN200
     FM300000 15012KT P6SM VCTS BKN050CB
     FM300300 12010KT P6SM -TSRA BKN025 OVC050CB
     FM300900 07005KT 6SM -SHRA BR FEW005 SCT030 OVC100=



000
FTUS43 KGLD 291100 RRA
TAFMCK
TAF
KMCK 291148Z 2912/3012 11008KT P6SM FEW250
     FM291800 09010KT P6SM SCT050 SCT200
     FM300000 09008KT P6SM VCTS BKN050CB
     FM300600 08007KT P6SM VCSH SCT050 BKN120 PROB30 3006/3012 -TSRA
      BKN050CB=



000
FTUS43 KGLD 291100 RRA
TAFGLD
TAF
KGLD 291148Z 2912/3012 18007KT P6SM FEW250
     FM292100 14013KT P6SM VCTS SCT050CB BKN200
     FM300000 08011KT P6SM -TSRA BKN050CB
     FM300900 07005KT 6SM -SHRA BR FEW005 SCT030 OVC100=



000
FTUS43 KGLD 291100 RRA
TAFMCK
TAF
KMCK 291148Z 2912/3012 11008KT P6SM FEW250
     FM291800 09010KT P6SM SCT050 SCT200
     FM300000 09008KT P6SM VCTS BKN050CB
     FM300600 08007KT P6SM VCSH SCT050 BKN120 PROB30 3006/3012 -TSRA
      BKN050CB=



000
FTUS43 KGLD 290500
TAFGLD
TAF
KGLD 290528Z 2906/3006 18010KT P6SM SCT250
     FM291200 17006KT P6SM SCT010
     FM291600 18013KT P6SM SCT250
     FM292000 14010G21KT P6SM VCTS SCT080CB
     FM300200 14012KT P6SM -TSRA BKN050CB=



000
FTUS43 KGLD 290500
TAFMCK
TAF
KMCK 290528Z 2906/3006 10008KT P6SM SCT250
     FM291800 12015KT P6SM SCT060
     FM292100 12015KT P6SM VCTS BKN050CB
      TEMPO 3003/3006 P6SM -TSRA BKN050CB=



000
FTUS43 KGLD 282300
TAFMCK
TAF
KMCK 282322Z 2900/2924 11006KT P6SM SCT250
     FM291600 12015KT P6SM VCTS SCT070CB=



000
FTUS43 KGLD 282300
TAFGLD
TAF
KGLD 282322Z 2900/2924 17010KT P6SM SCT250
     FM291800 14010G21KT P6SM VCTS SCT080CB=



000
FTUS43 KGLD 282300
TAFMCK
TAF
KMCK 282322Z 2900/2924 11006KT P6SM SCT250
     FM291600 12015KT P6SM VCTS SCT070CB=



000
FTUS43 KGLD 281700
TAFGLD
TAF
KGLD 281739Z 2818/2918 18013G23KT P6SM SCT060 BKN100
     FM290100 16011KT P6SM SCT250=



000
FTUS43 KGLD 281700
TAFMCK
TAF
KMCK 281739Z 2818/2918 15012KT P6SM SCT060
     FM290200 14008KT P6SM SCT250=



000
FTUS43 KGLD 281700
TAFMCK
TAF
KMCK 281739Z 2818/2918 15012KT P6SM SCT060
     FM290200 14008KT P6SM SCT250=



000
FTUS43 KGLD 281100 AAA
TAFGLD
TAF AMD
KGLD 281135Z 2812/2912 15006KT P6SM VCSH SCT100 SCT250
     FM281600 16013G18KT P6SM SCT060 SCT140 SCT300
     FM281900 16017G26KT P6SM BKN060
     FM290000 16012KT P6SM BKN070
     FM290100 16010KT P6SM BKN070=



000
FTUS43 KGLD 281100
TAFMCK
TAF
KMCK 281120Z 2812/2912 08005KT P6SM FEW100 SCT250
     FM281700 13008KT P6SM SCT070
     FM290300 10008KT P6SM SCT080=



000
FTUS43 KGLD 281100
TAFMCK
TAF
KMCK 281120Z 2812/2912 08005KT P6SM FEW100 SCT250
     FM281700 13008KT P6SM SCT070
     FM290300 10008KT P6SM SCT080=



000
FTUS43 KGLD 281100
TAFGLD
TAF
KGLD 281120Z 2812/2912 15006KT P6SM SCT100 SCT250
     FM281600 16013G18KT P6SM SCT060 SCT140 SCT300
     FM281900 16017G26KT P6SM BKN060
     FM290000 16012KT P6SM BKN070
     FM290100 16010KT P6SM BKN070=



    US Dept of Commerce
    National Oceanic and Atmospheric Administration
    National Weather Service
    1325 East West Highway
    Silver Spring, MD 20910
    Page Author: NWS Internet Services Team
Disclaimer
Information Quality
Credits
Glossary
Privacy Policy
Freedom of Information Act (FOIA)
About Us
Career Opportunities